createdAt,value
2023-08-03T00:00:23.795Z,30.43
2023-08-03T00:01:23.763Z,30.41
2023-08-03T00:02:23.776Z,30.43
2023-08-03T00:03:23.901Z,30.43
2023-08-03T00:04:23.715Z,30.43
2023-08-03T00:05:23.741Z,30.41
2023-08-03T00:06:23.717Z,30.40
2023-08-03T00:07:23.693Z,30.43
2023-08-03T00:08:23.678Z,30.41
2023-08-03T00:09:23.669Z,30.44
2023-08-03T00:10:23.675Z,30.41
2023-08-03T00:11:23.661Z,30.44
2023-08-03T00:12:23.669Z,30.43
2023-08-03T00:13:23.643Z,30.43
2023-08-03T00:14:23.631Z,30.41
2023-08-03T00:15:23.644Z,30.41
2023-08-03T00:16:23.659Z,30.41
2023-08-03T00:17:23.691Z,30.41
2023-08-03T00:18:23.615Z,30.43
2023-08-03T00:19:23.616Z,30.41
2023-08-03T00:20:23.596Z,30.40
2023-08-03T00:21:23.590Z,30.41
2023-08-03T00:22:23.581Z,30.44
2023-08-03T00:23:23.590Z,30.43
2023-08-03T00:24:23.568Z,30.41
2023-08-03T00:25:23.577Z,30.40
2023-08-03T00:26:23.564Z,30.43
2023-08-03T00:27:23.547Z,30.41
2023-08-03T00:28:23.548Z,30.41
2023-08-03T00:29:23.531Z,30.40
2023-08-03T00:30:23.531Z,30.41
2023-08-03T00:31:23.559Z,30.41
2023-08-03T00:32:23.600Z,30.40
2023-08-03T00:33:23.505Z,30.41
2023-08-03T00:34:23.503Z,30.41
2023-08-03T00:35:23.511Z,30.40
2023-08-03T00:36:23.512Z,30.41
2023-08-03T00:37:23.487Z,30.38
2023-08-03T00:38:23.490Z,30.41
2023-08-03T00:39:23.479Z,30.40
2023-08-03T00:40:23.467Z,30.38
2023-08-03T00:41:23.466Z,30.40
2023-08-03T00:42:23.460Z,30.40
2023-08-03T00:43:23.451Z,30.38
2023-08-03T00:44:23.457Z,30.40
2023-08-03T00:45:23.444Z,30.41
2023-08-03T00:46:23.446Z,30.37
2023-08-03T00:47:23.476Z,30.38
2023-08-03T00:48:23.429Z,30.37
2023-08-03T00:49:23.411Z,30.37
2023-08-03T00:50:23.413Z,30.41
2023-08-03T00:51:23.393Z,30.38
2023-08-03T00:52:23.390Z,30.38
2023-08-03T00:53:23.387Z,30.37
2023-08-03T00:54:23.370Z,30.40
2023-08-03T00:55:23.378Z,30.38
2023-08-03T00:56:23.371Z,30.38
2023-08-03T00:57:23.360Z,30.38
2023-08-03T00:58:23.355Z,30.38
2023-08-03T00:59:23.363Z,30.38
2023-08-03T01:00:23.365Z,30.38
2023-08-03T01:01:23.463Z,30.41
2023-08-03T01:02:23.400Z,30.40
2023-08-03T01:03:23.361Z,30.40
2023-08-03T01:04:23.305Z,30.37
2023-08-03T01:05:23.311Z,30.38
2023-08-03T01:06:23.360Z,30.40
2023-08-03T01:07:23.300Z,30.40
2023-08-03T01:08:23.294Z,30.40
2023-08-03T01:09:23.291Z,30.38
2023-08-03T01:10:23.417Z,30.37
2023-08-03T01:11:23.299Z,30.40
2023-08-03T01:12:23.271Z,30.40
2023-08-03T01:13:23.263Z,30.37
2023-08-03T01:14:23.263Z,30.40
2023-08-03T01:15:23.247Z,30.38
2023-08-03T01:16:23.265Z,30.38
2023-08-03T01:17:23.280Z,30.38
2023-08-03T01:18:23.231Z,30.40
2023-08-03T01:19:23.353Z,30.40
2023-08-03T01:20:23.224Z,30.40
2023-08-03T01:21:23.238Z,30.38
2023-08-03T01:22:23.206Z,30.37
2023-08-03T01:23:23.213Z,30.40
2023-08-03T01:24:23.205Z,30.40
2023-08-03T01:25:23.188Z,30.40
2023-08-03T01:26:23.229Z,30.37
2023-08-03T01:27:23.162Z,30.37
2023-08-03T01:28:23.159Z,30.40
2023-08-03T01:29:23.155Z,30.37
2023-08-03T01:30:23.165Z,30.37
2023-08-03T01:31:23.185Z,30.35
2023-08-03T01:32:23.175Z,30.35
2023-08-03T01:33:23.262Z,30.37
2023-08-03T01:34:23.125Z,30.38
2023-08-03T01:35:23.134Z,30.37
2023-08-03T01:36:23.111Z,30.35
2023-08-03T01:37:23.107Z,30.37
2023-08-03T01:38:23.097Z,30.37
2023-08-03T01:39:23.100Z,30.37
2023-08-03T01:40:23.098Z,30.35
2023-08-03T01:41:23.121Z,30.37
2023-08-03T01:42:23.105Z,30.34
2023-08-03T01:43:23.146Z,30.35
2023-08-03T01:44:23.140Z,30.34
2023-08-03T01:45:23.115Z,30.37
2023-08-03T01:46:23.175Z,30.35
2023-08-03T01:47:23.154Z,30.35
2023-08-03T01:48:23.171Z,30.35
2023-08-03T01:49:23.181Z,30.37
2023-08-03T01:50:23.183Z,30.37
2023-08-03T01:51:23.191Z,30.37
2023-08-03T01:52:23.203Z,30.35
2023-08-03T01:53:23.250Z,30.37
2023-08-03T01:54:23.234Z,30.35
2023-08-03T01:55:23.225Z,30.35
2023-08-03T01:56:23.226Z,30.35
2023-08-03T01:57:23.249Z,30.35
2023-08-03T01:58:23.264Z,30.37
2023-08-03T01:59:23.258Z,30.38
2023-08-03T02:00:23.260Z,30.35
2023-08-03T02:01:23.281Z,30.35
2023-08-03T02:02:23.288Z,30.37
2023-08-03T02:03:23.304Z,30.35
2023-08-03T02:04:23.354Z,30.35
2023-08-03T02:05:23.288Z,30.37
2023-08-03T02:06:23.335Z,30.34
2023-08-03T02:07:23.334Z,30.35
2023-08-03T02:08:23.321Z,30.37
2023-08-03T02:09:23.328Z,30.35
2023-08-03T02:10:23.331Z,30.34
2023-08-03T02:11:23.348Z,30.35
2023-08-03T02:12:23.356Z,30.35
2023-08-03T02:13:23.394Z,30.38
2023-08-03T02:14:23.368Z,30.37
2023-08-03T02:15:23.399Z,30.35
2023-08-03T02:16:25.674Z,30.34
2023-08-03T02:17:23.721Z,30.37
2023-08-03T02:18:23.550Z,30.37
2023-08-03T02:19:23.559Z,30.35
2023-08-03T02:20:23.562Z,30.37
2023-08-03T02:21:23.569Z,30.37
2023-08-03T02:22:23.596Z,30.35
2023-08-03T02:23:23.584Z,30.35
2023-08-03T02:24:23.604Z,30.35
2023-08-03T02:25:23.615Z,30.35
2023-08-03T02:26:23.619Z,30.35
2023-08-03T02:27:23.631Z,30.35
2023-08-03T02:28:23.633Z,30.35
2023-08-03T02:29:23.646Z,30.35
2023-08-03T02:30:23.655Z,30.38
2023-08-03T02:31:23.667Z,30.34
2023-08-03T02:32:23.766Z,30.34
2023-08-03T02:33:23.728Z,30.35
2023-08-03T02:34:23.682Z,30.33
2023-08-03T02:35:23.679Z,30.34
2023-08-03T02:36:23.684Z,30.33
2023-08-03T02:37:23.710Z,30.31
2023-08-03T02:38:23.712Z,30.33
2023-08-03T02:39:23.713Z,30.35
2023-08-03T02:40:23.736Z,30.34
2023-08-03T02:41:23.735Z,30.33
2023-08-03T02:42:23.796Z,30.33
2023-08-03T02:43:23.770Z,30.31
2023-08-03T02:44:23.774Z,30.34
2023-08-03T02:45:23.789Z,30.34
2023-08-03T02:46:23.833Z,30.33
2023-08-03T02:47:23.868Z,30.30
2023-08-03T02:48:23.818Z,30.31
2023-08-03T02:49:23.825Z,30.34
2023-08-03T02:50:23.826Z,30.33
2023-08-03T02:51:23.869Z,30.33
2023-08-03T02:52:23.852Z,30.33
2023-08-03T02:53:23.862Z,30.31
2023-08-03T02:54:23.866Z,30.33
2023-08-03T02:55:23.873Z,30.35
2023-08-03T02:56:23.880Z,30.31
2023-08-03T02:57:23.894Z,30.34
2023-08-03T02:58:23.911Z,30.34
2023-08-03T02:59:23.917Z,30.33
2023-08-03T03:00:23.965Z,30.34
2023-08-03T03:01:23.998Z,30.31
2023-08-03T03:02:23.997Z,30.33
2023-08-03T03:03:24.036Z,30.33
2023-08-03T03:04:23.972Z,30.34
2023-08-03T03:05:23.984Z,30.33
2023-08-03T03:06:24.017Z,30.33
2023-08-03T03:07:24.014Z,30.31
2023-08-03T03:08:24.027Z,30.33
2023-08-03T03:09:24.041Z,30.33
2023-08-03T03:10:24.047Z,30.31
2023-08-03T03:11:24.061Z,30.30
2023-08-03T03:12:24.077Z,30.31
2023-08-03T03:13:24.095Z,30.33
2023-08-03T03:14:24.096Z,30.31
2023-08-03T03:15:24.111Z,30.31
2023-08-03T03:16:24.182Z,30.33
2023-08-03T03:17:24.159Z,30.33
2023-08-03T03:18:24.158Z,30.31
2023-08-03T03:19:24.162Z,30.30
2023-08-03T03:20:24.180Z,30.28
2023-08-03T03:21:24.206Z,30.31
2023-08-03T03:22:24.208Z,30.31
2023-08-03T03:23:24.226Z,30.30
2023-08-03T03:24:24.251Z,30.30
2023-08-03T03:25:24.249Z,30.30
2023-08-03T03:26:24.264Z,30.28
2023-08-03T03:27:24.270Z,30.31
2023-08-03T03:28:24.280Z,30.30
2023-08-03T03:29:24.297Z,30.30
2023-08-03T03:30:24.307Z,30.27
2023-08-03T03:31:24.311Z,30.30
2023-08-03T03:32:24.376Z,30.28
2023-08-03T03:33:24.340Z,30.27
2023-08-03T03:34:24.343Z,30.26
2023-08-03T03:35:24.364Z,30.28
2023-08-03T03:36:24.374Z,30.28
2023-08-03T03:37:24.394Z,30.27
2023-08-03T03:38:24.437Z,30.28
2023-08-03T03:39:24.411Z,30.26
2023-08-03T03:40:24.433Z,30.30
2023-08-03T03:41:24.455Z,30.28
2023-08-03T03:42:24.469Z,30.28
2023-08-03T03:43:24.480Z,30.28
2023-08-03T03:44:24.487Z,30.26
2023-08-03T03:45:24.657Z,30.28
2023-08-03T03:46:24.523Z,30.26
2023-08-03T03:47:24.607Z,30.28
2023-08-03T03:48:24.587Z,30.26
2023-08-03T03:49:24.561Z,30.28
2023-08-03T03:50:24.599Z,30.26
2023-08-03T03:51:24.585Z,30.27
2023-08-03T03:52:24.581Z,30.28
2023-08-03T03:53:24.627Z,30.28
2023-08-03T03:54:24.608Z,30.27
2023-08-03T03:55:24.627Z,30.27
2023-08-03T03:56:24.649Z,30.27
2023-08-03T03:57:24.639Z,30.27
2023-08-03T03:58:24.667Z,30.28
2023-08-03T03:59:24.665Z,30.28
2023-08-03T04:00:24.681Z,30.27
2023-08-03T04:01:24.736Z,30.27
2023-08-03T04:02:24.750Z,30.27
2023-08-03T04:03:24.735Z,30.28
2023-08-03T04:04:24.731Z,30.24
2023-08-03T04:05:24.740Z,30.26
2023-08-03T04:06:24.780Z,30.27
2023-08-03T04:07:24.766Z,30.24
2023-08-03T04:08:24.780Z,30.26
2023-08-03T04:09:24.799Z,30.27
2023-08-03T04:10:24.809Z,30.27
2023-08-03T04:11:24.817Z,30.26
2023-08-03T04:12:24.829Z,30.26
2023-08-03T04:13:24.862Z,30.26
2023-08-03T04:14:24.877Z,30.26
2023-08-03T04:15:24.873Z,30.26
2023-08-03T04:16:24.882Z,30.26
2023-08-03T04:17:24.902Z,30.24
2023-08-03T04:18:24.904Z,30.26
2023-08-03T04:19:24.915Z,30.24
2023-08-03T04:20:24.934Z,30.27
2023-08-03T04:21:24.938Z,30.27
2023-08-03T04:22:24.957Z,30.26
2023-08-03T04:23:24.990Z,30.24
2023-08-03T04:24:24.987Z,30.26
2023-08-03T04:25:24.996Z,30.26
2023-08-03T04:26:25.004Z,30.27
2023-08-03T04:27:25.008Z,30.23
2023-08-03T04:28:25.042Z,30.24
2023-08-03T04:29:25.052Z,30.27
2023-08-03T04:30:25.052Z,30.24
2023-08-03T04:31:25.134Z,30.26
2023-08-03T04:32:25.106Z,30.21
2023-08-03T04:33:25.098Z,30.24
2023-08-03T04:34:26.674Z,30.24
2023-08-03T04:35:25.124Z,30.24
2023-08-03T04:36:25.123Z,30.26
2023-08-03T04:37:25.139Z,30.24
2023-08-03T04:38:25.152Z,30.26
2023-08-03T04:39:25.162Z,30.26
2023-08-03T04:40:25.196Z,30.24
2023-08-03T04:41:25.202Z,30.24
2023-08-03T04:42:25.205Z,30.24
2023-08-03T04:43:25.206Z,30.23
2023-08-03T04:44:25.235Z,30.26
2023-08-03T04:45:25.243Z,30.26
2023-08-03T04:46:25.266Z,30.24
2023-08-03T04:47:25.273Z,30.23
2023-08-03T04:48:25.287Z,30.27
2023-08-03T04:49:25.371Z,30.24
2023-08-03T04:50:25.302Z,30.24
2023-08-03T04:51:25.304Z,30.24
2023-08-03T04:52:25.328Z,30.24
2023-08-03T04:53:25.327Z,30.23
2023-08-03T04:54:25.352Z,30.20
2023-08-03T04:55:25.381Z,30.24
2023-08-03T04:56:25.374Z,30.24
2023-08-03T04:57:25.385Z,30.26
2023-08-03T04:58:25.397Z,30.24
2023-08-03T04:59:25.411Z,30.23
2023-08-03T05:00:25.460Z,30.23
2023-08-03T05:01:25.539Z,30.21
2023-08-03T05:02:25.521Z,30.21
2023-08-03T05:03:25.476Z,30.23
2023-08-03T05:04:25.509Z,30.21
2023-08-03T05:05:25.502Z,30.24
2023-08-03T05:06:25.543Z,30.21
2023-08-03T05:07:25.535Z,30.23
2023-08-03T05:08:25.555Z,30.21
2023-08-03T05:09:25.575Z,30.24
2023-08-03T05:10:25.598Z,30.21
2023-08-03T05:11:25.611Z,30.20
2023-08-03T05:12:25.610Z,30.23
2023-08-03T05:13:25.630Z,30.20
2023-08-03T05:14:25.644Z,30.23
2023-08-03T05:15:25.687Z,30.21
2023-08-03T05:16:25.872Z,30.23
2023-08-03T05:17:25.802Z,30.21
2023-08-03T05:18:25.704Z,30.23
2023-08-03T05:19:25.724Z,30.21
2023-08-03T05:20:25.711Z,30.21
2023-08-03T05:21:25.732Z,30.24
2023-08-03T05:22:25.747Z,30.23
2023-08-03T05:23:25.744Z,30.24
2023-08-03T05:24:25.765Z,30.24
2023-08-03T05:25:25.779Z,30.23
2023-08-03T05:26:25.810Z,30.23
2023-08-03T05:27:25.806Z,30.21
2023-08-03T05:28:25.820Z,30.23
2023-08-03T05:29:25.837Z,30.21
2023-08-03T05:30:25.866Z,30.24
2023-08-03T05:31:25.882Z,30.21
2023-08-03T05:32:25.936Z,30.21
2023-08-03T05:33:25.916Z,30.20
2023-08-03T05:34:25.948Z,30.23
2023-08-03T05:35:25.955Z,30.20
2023-08-03T05:36:25.960Z,30.20
2023-08-03T05:37:25.984Z,30.21
2023-08-03T05:38:26.003Z,30.21
2023-08-03T05:39:26.025Z,30.20
2023-08-03T05:40:26.043Z,30.23
2023-08-03T05:41:26.056Z,30.20
2023-08-03T05:42:26.082Z,30.21
2023-08-03T05:43:26.102Z,30.19
2023-08-03T05:44:26.128Z,30.21
2023-08-03T05:45:26.153Z,30.20
2023-08-03T05:46:26.228Z,30.21
2023-08-03T05:47:26.228Z,30.20
2023-08-03T05:48:26.205Z,30.21
2023-08-03T05:49:26.224Z,30.21
2023-08-03T05:50:26.244Z,30.21
2023-08-03T05:51:26.248Z,30.19
2023-08-03T05:52:26.266Z,30.21
2023-08-03T05:53:26.280Z,30.21
2023-08-03T05:54:26.295Z,30.21
2023-08-03T05:55:26.313Z,30.21
2023-08-03T05:56:26.336Z,30.19
2023-08-03T05:57:26.324Z,30.21
2023-08-03T05:58:26.335Z,30.21
2023-08-03T05:59:26.344Z,30.23
2023-08-03T06:00:26.370Z,30.20
2023-08-03T06:01:26.403Z,30.20
2023-08-03T06:02:26.408Z,30.20
2023-08-03T06:03:26.408Z,30.21
2023-08-03T06:04:26.445Z,30.20
2023-08-03T06:05:26.438Z,30.21
2023-08-03T06:06:26.512Z,30.20
2023-08-03T06:07:26.477Z,30.20
2023-08-03T06:08:26.481Z,30.17
2023-08-03T06:09:26.507Z,30.21
2023-08-03T06:10:26.531Z,30.20
2023-08-03T06:11:27.916Z,30.21
2023-08-03T06:12:26.558Z,30.21
2023-08-03T06:13:26.568Z,30.20
2023-08-03T06:14:26.579Z,30.21
2023-08-03T06:15:26.604Z,30.21
2023-08-03T06:16:26.719Z,30.21
2023-08-03T06:17:26.660Z,30.20
2023-08-03T06:18:26.650Z,30.20
2023-08-03T06:19:26.677Z,30.21
2023-08-03T06:20:26.697Z,30.21
2023-08-03T06:21:26.751Z,30.21
2023-08-03T06:22:26.732Z,30.19
2023-08-03T06:23:26.789Z,30.21
2023-08-03T06:24:26.776Z,30.21
2023-08-03T06:25:26.869Z,30.23
2023-08-03T06:26:27.189Z,30.20
2023-08-03T06:27:26.843Z,30.21
2023-08-03T06:28:26.857Z,30.20
2023-08-03T06:29:26.888Z,30.23
2023-08-03T06:30:26.908Z,30.20
2023-08-03T06:31:27.021Z,30.21
2023-08-03T06:32:26.986Z,30.21
2023-08-03T06:33:26.964Z,30.20
2023-08-03T06:34:27.003Z,30.24
2023-08-03T06:35:27.026Z,30.20
2023-08-03T06:36:27.042Z,30.19
2023-08-03T06:37:27.055Z,30.20
2023-08-03T06:38:27.079Z,30.20
2023-08-03T06:39:27.095Z,30.19
2023-08-03T06:40:27.126Z,30.19
2023-08-03T06:41:27.129Z,30.19
2023-08-03T06:42:27.147Z,30.17
2023-08-03T06:43:27.171Z,30.21
2023-08-03T06:44:27.200Z,30.20
2023-08-03T06:45:27.211Z,30.20
2023-08-03T06:46:27.275Z,30.17
2023-08-03T06:47:27.277Z,30.17
2023-08-03T06:48:27.272Z,30.19
2023-08-03T06:49:27.307Z,30.20
2023-08-03T06:50:27.384Z,30.19
2023-08-03T06:51:27.342Z,30.19
2023-08-03T06:52:27.368Z,30.19
2023-08-03T06:53:27.395Z,30.19
2023-08-03T06:54:27.413Z,30.16
2023-08-03T06:55:27.433Z,30.17
2023-08-03T06:56:27.457Z,30.19
2023-08-03T06:57:27.475Z,30.19
2023-08-03T06:58:27.486Z,30.17
2023-08-03T06:59:27.520Z,30.19
2023-08-03T07:00:27.671Z,30.19
2023-08-03T07:01:27.601Z,30.17
2023-08-03T07:02:27.719Z,30.17
2023-08-03T07:03:27.775Z,30.21
2023-08-03T07:04:27.629Z,30.19
2023-08-03T07:05:27.638Z,30.20
2023-08-03T07:06:27.734Z,30.19
2023-08-03T07:07:27.694Z,30.17
2023-08-03T07:08:27.723Z,30.17
2023-08-03T07:09:27.733Z,30.20
2023-08-03T07:10:29.637Z,30.17
2023-08-03T07:11:27.799Z,30.20
2023-08-03T07:12:27.822Z,30.16
2023-08-03T07:13:27.843Z,30.17
2023-08-03T07:14:27.878Z,30.16
2023-08-03T07:15:27.898Z,30.16
2023-08-03T07:16:27.990Z,30.19
2023-08-03T07:17:27.970Z,30.19
2023-08-03T07:18:28.062Z,30.17
2023-08-03T07:19:27.988Z,30.16
2023-08-03T07:20:28.005Z,30.17
2023-08-03T07:21:28.036Z,30.17
2023-08-03T07:22:28.064Z,30.19
2023-08-03T07:23:28.076Z,30.17
2023-08-03T07:24:28.096Z,30.14
2023-08-03T07:25:28.111Z,30.17
2023-08-03T07:26:28.154Z,30.17
2023-08-03T07:27:28.170Z,30.16
2023-08-03T07:28:28.205Z,30.19
2023-08-03T07:29:28.364Z,30.17
2023-08-03T07:30:29.059Z,30.19
2023-08-03T07:31:28.305Z,30.17
2023-08-03T07:32:28.253Z,30.19
2023-08-03T07:33:28.238Z,30.19
2023-08-03T07:34:28.215Z,30.19
2023-08-03T07:35:28.220Z,30.16
2023-08-03T07:36:28.231Z,30.20
2023-08-03T07:37:28.206Z,30.19
2023-08-03T07:38:28.191Z,30.19
2023-08-03T07:39:28.197Z,30.20
2023-08-03T07:40:28.177Z,30.20
2023-08-03T07:41:28.172Z,30.20
2023-08-03T07:42:28.176Z,30.19
2023-08-03T07:43:28.162Z,30.20
2023-08-03T07:44:49.161Z,30.20
2023-08-03T07:46:28.164Z,30.19
2023-08-03T07:47:28.165Z,30.19
2023-08-03T07:48:28.128Z,30.19
2023-08-03T07:49:28.107Z,30.19
2023-08-03T07:50:28.104Z,30.17
2023-08-03T07:51:28.134Z,30.20
2023-08-03T07:52:28.090Z,30.19
2023-08-03T07:53:28.075Z,30.17
2023-08-03T07:54:28.083Z,30.19
2023-08-03T07:55:28.069Z,30.19
2023-08-03T07:56:29.686Z,30.19
2023-08-03T07:57:28.055Z,30.19
2023-08-03T07:58:28.045Z,30.19
2023-08-03T07:59:28.034Z,30.19
2023-08-03T08:00:28.073Z,30.19
2023-08-03T08:01:28.093Z,30.17
2023-08-03T08:02:28.037Z,30.19
2023-08-03T08:03:28.044Z,30.17
2023-08-03T08:04:28.019Z,30.19
2023-08-03T08:05:28.020Z,30.19
2023-08-03T08:06:27.990Z,30.21
2023-08-03T08:07:27.991Z,30.20
2023-08-03T08:08:28.024Z,30.19
2023-08-03T08:09:27.972Z,30.19
2023-08-03T08:10:27.969Z,30.20
2023-08-03T08:11:28.009Z,30.19
2023-08-03T08:12:27.967Z,30.19
2023-08-03T08:13:27.946Z,30.20
2023-08-03T08:14:27.938Z,30.17
2023-08-03T08:15:28.035Z,30.21
2023-08-03T08:16:27.959Z,30.19
2023-08-03T08:17:27.989Z,30.17
2023-08-03T08:18:28.527Z,30.20
2023-08-03T08:19:27.909Z,30.20
2023-08-03T08:20:27.925Z,30.20
2023-08-03T08:21:27.990Z,30.24
2023-08-03T08:22:28.093Z,30.20
2023-08-03T08:23:27.970Z,30.21
2023-08-03T08:24:28.086Z,30.19
2023-08-03T08:25:28.102Z,30.23
2023-08-03T08:26:28.113Z,30.23
2023-08-03T08:27:28.231Z,30.20
2023-08-03T08:28:28.137Z,30.19
2023-08-03T08:29:28.093Z,30.23
2023-08-03T08:30:28.142Z,30.20
2023-08-03T08:31:30.672Z,30.21
2023-08-03T08:32:29.298Z,30.23
2023-08-03T08:33:28.203Z,30.23
2023-08-03T08:34:29.640Z,30.23
2023-08-03T08:35:28.110Z,30.23
2023-08-03T08:36:28.133Z,30.23
2023-08-03T08:37:28.109Z,30.23
2023-08-03T08:38:28.090Z,30.23
2023-08-03T08:39:28.162Z,30.21
2023-08-03T08:40:28.081Z,30.24
2023-08-03T08:41:28.065Z,30.24
2023-08-03T08:42:28.063Z,30.24
2023-08-03T08:43:28.085Z,30.24
2023-08-03T08:44:28.055Z,30.26
2023-08-03T08:45:28.050Z,30.26
2023-08-03T08:46:28.192Z,30.26
2023-08-03T08:47:28.200Z,30.26
2023-08-03T08:50:31.822Z,30.23
2023-08-03T08:52:28.147Z,30.27
2023-08-03T08:53:28.094Z,30.26
2023-08-03T08:55:17.467Z,30.27
2023-08-03T08:58:28.087Z,30.27
2023-08-03T09:00:27.945Z,30.28
2023-08-03T09:01:27.985Z,30.27
2023-08-03T09:02:28.048Z,30.27
2023-08-03T09:03:28.690Z,30.28
2023-08-03T09:06:27.928Z,30.28
2023-08-03T09:07:27.918Z,30.28
2023-08-03T09:08:27.889Z,30.30
2023-08-03T09:09:27.881Z,30.27
2023-08-03T09:10:27.877Z,30.28
2023-08-03T09:11:27.908Z,30.28
2023-08-03T09:12:27.891Z,30.28
2023-08-03T09:13:27.889Z,30.28
2023-08-03T09:14:27.939Z,30.27
2023-08-03T09:15:27.846Z,30.27
2023-08-03T09:16:27.938Z,30.28
2023-08-03T09:17:27.913Z,30.28
2023-08-03T09:18:27.870Z,30.28
2023-08-03T09:19:27.817Z,30.31
2023-08-03T09:23:27.863Z,30.30
2023-08-03T09:25:40.275Z,30.31
2023-08-03T09:27:58.852Z,30.27
2023-08-03T09:29:27.784Z,30.31
2023-08-03T09:30:36.866Z,30.31
2023-08-03T09:31:29.483Z,30.31
2023-08-03T09:32:28.004Z,30.33
2023-08-03T09:37:45.392Z,30.34
2023-08-03T09:38:28.748Z,30.34
2023-08-03T09:39:30.928Z,30.33
2023-08-03T09:40:27.675Z,30.34
2023-08-03T09:41:27.665Z,30.34
2023-08-03T09:44:27.684Z,30.35
2023-08-03T09:46:27.657Z,30.34
2023-08-03T09:47:29.912Z,30.34
2023-08-03T09:48:27.754Z,30.34
2023-08-03T09:49:27.743Z,30.35
2023-08-03T09:50:27.814Z,30.34
2023-08-03T09:51:27.759Z,30.35
2023-08-03T09:53:27.976Z,30.35
2023-08-03T09:54:27.804Z,30.34
2023-08-03T09:55:27.759Z,30.35
2023-08-03T09:56:27.773Z,30.35
2023-08-03T09:57:27.746Z,30.35
2023-08-03T09:58:27.737Z,30.34
2023-08-03T09:59:27.934Z,30.38
2023-08-03T10:00:27.767Z,30.37
2023-08-03T10:01:27.717Z,30.37
2023-08-03T10:02:27.769Z,30.40
2023-08-03T10:03:27.754Z,30.40
2023-08-03T10:04:27.704Z,30.38
2023-08-03T10:05:27.764Z,30.40
2023-08-03T10:06:27.706Z,30.41
2023-08-03T10:07:27.680Z,30.43
2023-08-03T10:08:27.668Z,30.40
2023-08-03T10:09:27.710Z,30.41
2023-08-03T10:10:27.673Z,30.44
2023-08-03T10:11:27.645Z,30.43
2023-08-03T10:12:27.651Z,30.41
2023-08-03T10:13:27.632Z,30.40
2023-08-03T10:14:27.627Z,30.44
2023-08-03T10:15:27.648Z,30.44
2023-08-03T10:16:27.652Z,30.41
2023-08-03T10:17:27.616Z,30.40
2023-08-03T10:18:49.285Z,30.43
2023-08-03T10:19:28.607Z,30.41
2023-08-03T10:20:27.580Z,30.43
2023-08-03T10:21:27.642Z,30.45
2023-08-03T10:22:27.561Z,30.43
2023-08-03T10:23:27.556Z,30.41
2023-08-03T10:24:27.618Z,30.43
2023-08-03T10:25:27.546Z,30.40
2023-08-03T10:26:27.561Z,30.41
2023-08-03T10:27:27.598Z,30.43
2023-08-03T10:28:27.532Z,30.41
2023-08-03T10:29:27.523Z,30.43
2023-08-03T10:30:27.543Z,30.43
2023-08-03T10:31:27.514Z,30.43
2023-08-03T10:32:27.511Z,30.41
2023-08-03T10:33:27.528Z,30.43
2023-08-03T10:34:27.490Z,30.43
2023-08-03T10:35:27.498Z,30.43
2023-08-03T10:36:27.582Z,30.43
2023-08-03T10:37:27.460Z,30.41
2023-08-03T10:38:27.490Z,30.38
2023-08-03T10:39:27.495Z,30.43
2023-08-03T10:40:27.451Z,30.43
2023-08-03T10:41:27.448Z,30.43
2023-08-03T10:42:27.489Z,30.40
2023-08-03T10:43:27.424Z,30.40
2023-08-03T10:44:27.450Z,30.40
2023-08-03T10:45:27.580Z,30.43
2023-08-03T10:46:27.542Z,30.43
2023-08-03T10:47:27.644Z,30.43
2023-08-03T10:48:27.515Z,30.41
2023-08-03T10:49:27.450Z,30.43
2023-08-03T10:50:27.384Z,30.44
2023-08-03T10:51:27.379Z,30.44
2023-08-03T10:52:27.372Z,30.45
2023-08-03T10:53:27.365Z,30.44
2023-08-03T10:54:27.366Z,30.44
2023-08-03T10:55:27.430Z,30.43
2023-08-03T10:56:27.398Z,30.43
2023-08-03T10:57:27.404Z,30.43
2023-08-03T10:58:27.463Z,30.41
2023-08-03T10:59:27.437Z,30.43
2023-08-03T11:00:27.441Z,30.43
2023-08-03T11:01:27.516Z,30.41
2023-08-03T11:02:27.672Z,30.44
2023-08-03T11:03:27.544Z,30.41
2023-08-03T11:04:27.609Z,30.43
2023-08-03T11:05:27.485Z,30.44
2023-08-03T11:06:27.492Z,30.43
2023-08-03T11:07:27.522Z,30.43
2023-08-03T11:08:27.516Z,30.43
2023-08-03T11:09:27.516Z,30.43
2023-08-03T11:10:27.547Z,30.43
2023-08-03T11:11:27.533Z,30.41
2023-08-03T11:12:27.548Z,30.41
2023-08-03T11:13:27.578Z,30.41
2023-08-03T11:14:27.562Z,30.41
2023-08-03T11:15:27.582Z,30.40
2023-08-03T11:16:27.632Z,30.38
2023-08-03T11:17:27.721Z,30.40
2023-08-03T11:18:27.605Z,30.40
2023-08-03T11:19:27.622Z,30.40
2023-08-03T11:20:27.646Z,30.38
2023-08-03T11:21:27.651Z,30.40
2023-08-03T11:22:27.705Z,30.38
2023-08-03T11:23:27.669Z,30.41
2023-08-03T11:24:27.674Z,30.38
2023-08-03T11:25:27.725Z,30.41
2023-08-03T11:26:27.712Z,30.41
2023-08-03T11:27:27.697Z,30.43
2023-08-03T11:28:27.754Z,30.40
2023-08-03T11:29:27.718Z,30.41
2023-08-03T11:30:27.731Z,30.40
2023-08-03T11:31:27.747Z,30.41
2023-08-03T11:32:27.790Z,30.41
2023-08-03T11:33:27.753Z,30.41
2023-08-03T11:34:27.835Z,30.40
2023-08-03T11:35:27.785Z,30.40
2023-08-03T11:36:27.785Z,30.41
2023-08-03T11:37:27.782Z,30.40
2023-08-03T11:38:27.782Z,30.38
2023-08-03T11:39:27.791Z,30.40
2023-08-03T11:40:27.828Z,30.38
2023-08-03T11:41:33.345Z,30.40
2023-08-03T11:42:28.804Z,30.40
2023-08-03T11:43:27.841Z,30.38
2023-08-03T11:44:28.139Z,30.37
2023-08-03T11:45:27.826Z,30.38
2023-08-03T11:46:27.802Z,30.38
2023-08-03T11:47:27.807Z,30.37
2023-08-03T11:48:27.763Z,30.37
2023-08-03T11:49:27.800Z,30.35
2023-08-03T11:50:27.753Z,30.38
2023-08-03T11:51:27.741Z,30.38
2023-08-03T11:52:27.754Z,30.38
2023-08-03T11:53:27.848Z,30.35
2023-08-03T11:54:27.737Z,30.40
2023-08-03T11:55:27.742Z,30.37
2023-08-03T11:56:38.305Z,30.38
2023-08-03T11:57:28.711Z,30.37
2023-08-03T11:58:27.756Z,30.35
2023-08-03T11:59:33.321Z,30.38
2023-08-03T12:00:28.696Z,30.37
2023-08-03T12:01:27.696Z,30.38
2023-08-03T12:02:27.765Z,30.38
2023-08-03T12:03:27.747Z,30.35
2023-08-03T12:04:28.851Z,30.38
2023-08-03T12:05:30.386Z,30.38
2023-08-03T12:07:27.714Z,30.37
2023-08-03T12:08:27.736Z,30.38
2023-08-03T12:09:27.682Z,30.35
2023-08-03T12:10:27.723Z,30.37
2023-08-03T12:12:35.007Z,30.37
2023-08-03T12:13:28.643Z,30.34
2023-08-03T12:14:27.592Z,30.35
2023-08-03T12:15:27.602Z,30.35
2023-08-03T12:16:27.568Z,30.35
2023-08-03T12:17:30.399Z,30.33
2023-08-03T12:18:27.600Z,30.35
2023-08-03T12:19:27.562Z,30.37
2023-08-03T12:20:27.813Z,30.37
2023-08-03T12:21:27.596Z,30.37
2023-08-03T12:22:27.529Z,30.34
2023-08-03T12:23:27.545Z,30.34
2023-08-03T12:24:28.136Z,30.34
2023-08-03T12:26:27.505Z,30.34
2023-08-03T12:27:27.543Z,30.35
2023-08-03T12:28:28.116Z,30.33
2023-08-03T12:29:27.485Z,30.34
2023-08-03T12:30:27.534Z,30.35
2023-08-03T12:31:27.485Z,30.33
2023-08-03T12:32:33.250Z,30.34
2023-08-03T12:33:28.550Z,30.35
2023-08-03T12:34:27.516Z,30.35
2023-08-03T12:35:27.453Z,30.34
2023-08-03T12:36:27.467Z,30.34
2023-08-03T12:37:27.491Z,30.34
2023-08-03T12:38:27.446Z,30.34
2023-08-03T12:39:27.507Z,30.33
2023-08-03T12:40:27.413Z,30.33
2023-08-03T12:41:27.414Z,30.34
2023-08-03T12:43:27.410Z,30.34
2023-08-03T12:44:27.458Z,30.34
2023-08-03T12:45:27.400Z,30.33
2023-08-03T12:46:27.384Z,30.35
2023-08-03T12:47:36.606Z,30.33
2023-08-03T12:48:28.472Z,30.35
2023-08-03T12:49:27.359Z,30.31
2023-08-03T12:50:27.461Z,30.31
2023-08-03T12:51:27.366Z,30.34
2023-08-03T12:52:27.372Z,30.33
2023-08-03T12:53:27.429Z,30.34
2023-08-03T12:54:29.566Z,30.34
2023-08-03T12:55:27.366Z,30.31
2023-08-03T12:56:27.401Z,30.31
2023-08-03T12:57:27.409Z,30.34
2023-08-03T12:58:27.419Z,30.31
2023-08-03T12:59:27.549Z,30.33
2023-08-03T13:00:29.517Z,30.31
2023-08-03T13:01:27.505Z,30.33
2023-08-03T13:02:27.619Z,30.31
2023-08-03T13:03:27.549Z,30.33
2023-08-03T13:04:27.561Z,30.34
2023-08-03T13:05:27.628Z,30.31
2023-08-03T13:06:27.535Z,30.31
2023-08-03T13:07:27.570Z,30.31
2023-08-03T13:08:27.627Z,30.33
2023-08-03T13:09:28.618Z,30.31
2023-08-03T13:10:27.600Z,30.33
2023-08-03T13:11:27.636Z,30.31
2023-08-03T13:12:29.622Z,30.33
2023-08-03T13:13:27.613Z,30.31
2023-08-03T13:14:27.709Z,30.33
2023-08-03T13:15:27.685Z,30.31
2023-08-03T13:16:27.688Z,30.33
2023-08-03T13:17:27.760Z,30.30
2023-08-03T13:18:27.826Z,30.31
2023-08-03T13:19:27.728Z,30.30
2023-08-03T13:20:27.798Z,30.28